Upper Dublin, Pennsylvania
Current Conditions -  °F | °C
As of 3:15 PM on Monday 22 Dec 2014 (Local Time) from KLOM Reporting Station
Broken Clouds Broken Clouds  
Wind Chill: 41°   Ceiling: 2200
Heat Index: 45°   Visibility: 10mi
Dew Point: 36°   Wind: 6mph
Humidity: 71%   Direction: 90°E
Pressure: 30.19"   Gusts: NA
Location:  40.1333°N, 75.2109°W
Report Text: KLOM 222015Z AUTO 09005KT 10SM BKN022 BKN090 07/02 A3019 RMK AO1
Loading
Personal Weather Stations






























Interactive Weather Map New forecast layout! Learn more

10-Day Weather Forecast

Advertisements
Track Severe Weather on mobile